Time;durP1;ratioP1;P1;durP2;ratioP2;P2;SDS_P1;SDS_P2;PMS_P1;PMS_P2;Temp;Humidity;BMP_temperature;BMP_pressure;BME280_temperature;BME280_humidity;BME280_pressure;Samples;Min_cycle;Max_cycle;Signal;HPM_P1;HPM_P2
2021/07/11 08:51:04;;;;;;;791.33;739.65;;;;;;;;;;5091114;28;21036;-74
2021/07/11 08:53:33;;;;;;;831.25;775.22;;;;;;;;;;5091119;28;20172;-74
2021/07/11 08:56:03;;;;;;;839.17;783.30;;;;;;;;;;5090772;28;20160;-74
2021/07/11 08:58:29;;;;;;;839.75;783.63;;;;;;;;;;5090788;28;20167;-74
2021/07/11 09:00:55;;;;;;;806.58;754.35;;;;;;;;;;5091093;28;20183;-74
2021/07/11 09:03:21;;;;;;;763.72;715.55;;;;;;;;;;5089980;28;20175;-74
2021/07/11 09:05:54;;;;;;;781.95;732.03;;;17.50;99.90;;;;;;5091081;28;20685;-74
2021/07/11 09:08:25;;;;;;;786.63;736.25;;;17.40;99.90;;;;;;5090816;28;20171;-74
2021/07/11 09:11:00;;;;;;;767.05;718.80;;;17.40;99.90;;;;;;5089669;28;21004;-74
2021/07/11 09:13:32;;;;;;;655.78;615.97;;;17.50;99.90;;;;;;5090822;28;20253;-74
2021/07/11 09:15:59;;;;;;;632.97;595.67;;;17.60;99.90;;;;;;5070591;28;20168;-74
2021/07/11 09:18:27;;;;;;;621.05;584.83;;;17.60;99.90;;;;;;5070562;28;20176;-74
2021/07/11 09:20:57;;;;;;;528.83;499.75;;;17.80;99.90;;;;;;5070448;28;20180;-74
2021/07/11 09:23:25;;;;;;;486.10;459.77;;;17.80;99.90;;;;;;5070401;28;20253;-74
2021/07/11 09:26:02;;;;;;;499.17;471.55;;;17.80;99.90;;;;;;5070216;28;20187;-74
2021/07/11 09:28:29;;;;;;;504.48;476.75;;;17.80;99.90;;;;;;5070351;28;20171;-74
2021/07/11 09:31:11;;;;;;;526.05;497.48;;;17.90;99.90;;;;;;5070064;28;20215;-74
2021/07/11 09:33:39;;;;;;;527.67;497.92;;;;;;;;;;5069012;28;20176;-74
2021/07/11 09:36:19;;;;;;;599.72;565.05;;;17.90;99.90;;;;;;5070159;28;20179;-74
2021/07/11 09:38:49;;;;;;;520.75;492.52;;;17.90;99.90;;;;;;5069970;28;20542;-74
2021/07/11 09:41:19;;;;;;;763.33;716.95;;;17.80;99.90;;;;;;5070051;28;20690;-74
2021/07/11 09:43:46;;;;;;;699.58;658.47;;;17.80;99.90;;;;;;5069930;28;20214;-74
2021/07/11 09:46:15;;;;;;;666.45;627.53;;;17.60;99.90;;;;;;5069818;28;20153;-75
2021/07/11 09:48:41;;;;;;;679.28;639.65;;;17.90;99.90;;;;;;5069651;28;20160;-74
2021/07/11 09:51:25;;;;;;;662.08;623.30;;;17.70;99.90;;;;;;5069927;28;20252;-74
2021/07/11 09:53:52;;;;;;;772.88;725.90;;;17.90;99.90;;;;;;5069690;28;20585;-74
2021/07/11 09:56:30;;;;;;;802.03;753.25;;;18.10;99.90;;;;;;5069814;28;20161;-74
2021/07/11 09:58:57;;;;;;;750.53;705.90;;;18.00;99.90;;;;;;5069523;28;20255;-74
2021/07/11 10:01:23;;;;;;;675.25;636.45;;;18.20;99.90;;;;;;5062105;28;20702;-74
2021/07/11 10:03:49;;;;;;;688.60;648.95;;;18.20;99.90;;;;;;5056171;28;20256;-74
2021/07/11 10:06:15;;;;;;;652.28;615.47;;;18.50;99.90;;;;;;5056279;28;20222;-74
2021/07/11 10:08:42;;;;;;;785.50;739.25;;;18.60;99.90;;;;;;5055025;28;20223;-74
2021/07/11 10:11:08;;;;;;;441.60;419.00;;;18.10;99.90;;;;;;5056429;28;20661;-74
2021/07/11 10:13:34;;;;;;;315.80;300.05;;;18.40;99.90;;;;;;5056096;28;20161;-74
2021/07/11 10:16:01;;;;;;;329.25;312.13;;;18.70;99.90;;;;;;5056312;28;20537;-74
2021/07/11 10:18:29;;;;;;;374.02;354.83;;;18.40;99.90;;;;;;5056255;28;20165;-74
2021/07/11 10:20:56;;;;;;;504.02;477.65;;;18.60;99.90;;;;;;5056025;28;20169;-74
2021/07/11 10:23:37;;;;;;;324.13;307.42;;;18.50;99.90;;;;;;5056178;28;20173;-74
2021/07/11 10:26:11;;;;;;;312.95;297.17;;;18.60;99.90;;;;;;5056018;28;20176;-74
2021/07/11 10:28:41;;;;;;;359.02;341.27;;;18.70;99.90;;;;;;5056042;28;20214;-74
2021/07/11 10:31:24;;;;;;;272.30;258.83;;;18.90;99.90;;;;;;5055815;28;20183;-74
2021/07/11 10:33:52;;;;;;;319.40;303.42;;;19.00;99.90;;;;;;5055865;28;20215;-74
2021/07/11 10:36:35;;;;;;;165.32;156.68;;;19.10;99.90;;;;;;5055833;28;20175;-75
2021/07/11 10:39:03;;;;;;;149.55;141.73;;;19.20;99.90;;;;;;5055629;28;20171;-74
2021/07/11 10:41:31;;;;;;;128.25;121.53;;;19.60;99.90;;;;;;5055724;28;20160;-74
2021/07/11 10:44:04;;;;;;;114.95;108.43;;;19.60;99.90;;;;;;5055517;28;20179;-74
2021/07/11 10:46:36;;;;;;;115.80;109.43;;;20.20;99.90;;;;;;5055590;28;20176;-74
2021/07/11 10:49:25;;;;;;;114.00;107.80;;;19.50;99.90;;;;;;5055204;28;20224;-74
2021/07/11 10:51:56;;;;;;;108.93;102.38;;;19.00;99.90;;;;;;5054024;28;20215;-74
2021/07/11 10:54:31;;;;;;;104.47;98.95;;;19.40;99.90;;;;;;5055573;28;20168;-74
2021/07/11 10:57:09;;;;;;;125.65;118.35;;;20.70;99.90;;;;;;5053829;28;20747;-75
2021/07/11 10:59:37;;;;;;;99.93;94.63;;;19.40;99.90;;;;;;5055254;28;20187;-74
2021/07/11 11:02:23;;;;;;;150.68;142.27;;;19.80;99.90;;;;;;5055032;28;20168;-74
2021/07/11 11:05:13;;;;;;;171.80;162.93;;;20.00;99.90;;;;;;5054772;28;20172;-74
2021/07/11 11:07:53;;;;;;;234.45;222.38;;;19.70;99.90;;;;;;5054678;28;20161;-74
2021/07/11 11:10:30;;;;;;;186.90;177.35;;;19.80;99.90;;;;;;5054491;28;20286;-74
2021/07/11 11:13:03;;;;;;;337.23;319.35;;;19.80;99.90;;;;;;5053573;28;20168;-74
2021/07/11 11:15:37;;;;;;;142.70;135.32;;;20.30;99.90;;;;;;5054400;28;20623;-74
2021/07/11 11:18:18;;;;;;;180.85;171.40;;;20.40;99.90;;;;;;5053204;28;20168;-75
2021/07/11 11:21:07;;;;;;;205.65;194.68;;;20.90;99.90;;;;;;5053051;28;20176;-75
2021/07/11 11:23:37;;;;;;;268.95;254.90;;;20.30;99.90;;;;;;5054705;28;20160;-75
2021/07/11 11:26:03;;;;;;;197.15;186.60;;;20.90;99.90;;;;;;5054738;28;20630;-75
2021/07/11 11:28:35;;;;;;;294.05;279.35;;;20.60;99.90;;;;;;5053691;28;20222;-74
2021/07/11 11:31:11;;;;;;;370.20;350.40;;;20.40;99.90;;;;;;5054634;28;20165;-74
2021/07/11 11:33:55;;;;;;;382.10;362.63;;;20.10;99.90;;;;;;5054602;28;20586;-74
2021/07/11 11:36:26;;;;;;;346.33;328.95;;;19.90;99.90;;;;;;5054325;28;20529;-74
2021/07/11 11:38:54;;;;;;;393.25;373.15;;;19.80;99.90;;;;;;5054549;28;20242;-74
2021/07/11 11:41:21;;;;;;;257.75;245.00;;;20.10;99.90;;;;;;5054486;28;20168;-74
2021/07/11 11:43:50;;;;;;;170.88;162.02;;;20.10;99.90;;;;;;5054574;28;20165;-74
2021/07/11 11:46:29;;;;;;;214.10;203.20;;;20.10;99.90;;;;;;5054333;28;20222;-74
2021/07/11 11:49:07;;;;;;;317.45;301.42;;;20.20;99.90;;;;;;5052587;28;20590;-74
2021/07/11 11:51:34;;;;;;;312.85;296.02;;;20.10;99.90;;;;;;5053811;28;20161;-74
2021/07/11 11:53:59;;;;;;;233.30;221.55;;;20.00;99.90;;;;;;5052796;28;20566;-74
2021/07/11 11:56:26;;;;;;;262.13;249.00;;;20.20;99.90;;;;;;5053921;28;20173;-74
2021/07/11 11:59:04;;;;;;;243.15;230.95;;;19.80;99.90;;;;;;5053953;28;20164;-74
2021/07/11 12:01:33;;;;;;;336.17;318.58;;;20.00;99.90;;;;;;5052925;28;20164;-74
2021/07/11 12:04:17;;;;;;;349.02;331.02;;;20.20;99.90;;;;;;5054177;28;20183;-74
2021/07/11 12:06:47;;;;;;;452.65;428.83;;;20.00;99.90;;;;;;5052921;28;20175;-74
2021/07/11 12:09:14;;;;;;;262.73;249.48;;;19.90;99.90;;;;;;5054182;28;20562;-74
2021/07/11 12:11:40;;;;;;;260.23;246.90;;;20.10;99.90;;;;;;5053989;28;20176;-74
2021/07/11 12:14:08;;;;;;;319.17;302.33;;;20.10;99.90;;;;;;5053744;28;20188;-74
2021/07/11 12:16:34;;;;;;;319.27;302.45;;;19.90;99.90;;;;;;5053857;28;20214;-74
2021/07/11 12:19:05;;;;;;;716.75;674.50;;;20.00;99.90;;;;;;5053920;28;20251;-74
2021/07/11 12:21:31;;;;;;;692.53;653.22;;;20.00;99.90;;;;;;5054027;28;20554;-74
2021/07/11 12:24:27;;;;;;;712.17;670.80;;;19.90;99.90;;;;;;5052268;28;20168;-74
2021/07/11 12:27:02;;;;;;;636.40;601.45;;;19.80;99.90;;;;;;5056595;28;20188;-74
2021/07/11 12:29:32;;;;;;;722.47;680.85;;;19.90;99.90;;;;;;5053708;28;20160;-74
2021/07/11 12:32:04;;;;;;;754.00;710.25;;;19.90;99.90;;;;;;5053569;28;20187;-74
2021/07/11 12:34:30;;;;;;;820.72;771.85;;;20.10;99.90;;;;;;5052467;28;20176;-74
2021/07/11 12:37:00;;;;;;;908.85;852.47;;;20.00;99.90;;;;;;5053711;28;20659;-74
2021/07/11 12:39:27;;;;;;;866.33;813.65;;;20.00;99.90;;;;;;5053522;28;20657;-74
2021/07/11 12:41:54;;;;;;;831.67;781.17;;;20.10;99.90;;;;;;5053755;28;20560;-74
2021/07/11 12:44:41;;;;;;;901.92;845.63;;;20.10;99.90;;;;;;5053365;28;20168;-74
2021/07/11 12:47:10;;;;;;;846.65;794.92;;;20.10;99.90;;;;;;5053290;28;20175;-74
2021/07/11 12:49:36;;;;;;;774.03;727.95;;;20.50;99.90;;;;;;5053076;28;20304;-74
2021/07/11 12:52:08;;;;;;;882.60;827.97;;;20.30;99.90;;;;;;5053300;28;20168;-74
2021/07/11 12:54:33;;;;;;;609.88;576.05;;;20.40;99.90;;;;;;5053330;28;20256;-74
2021/07/11 12:57:03;;;;;;;594.58;562.22;;;20.80;99.90;;;;;;5053305;28;20556;-74
2021/07/11 12:59:40;;;;;;;696.95;654.92;;;21.00;99.90;;;;;;5053123;28;20620;-74
2021/07/11 13:02:10;;;;;;;877.03;820.80;;;20.80;99.90;;;;;;5052280;28;20562;-74
2021/07/11 13:04:40;;;;;;;703.05;661.70;;;21.10;99.90;;;;;;5053270;28;20164;-74
2021/07/11 13:07:08;;;;;;;578.55;546.22;;;21.60;99.90;;;;;;5053200;28;20630;-74
2021/07/11 13:09:36;;;;;;;623.13;587.70;;;20.90;99.90;;;;;;5053356;28;20233;-74
2021/07/11 13:12:02;;;;;;;407.42;385.58;;;21.50;99.90;;;;;;5053354;28;20252;-74
2021/07/11 13:14:27;;;;;;;712.35;668.90;;;21.80;99.90;;;;;;5053347;28;20610;-74
2021/07/11 13:16:53;;;;;;;529.25;500.17;;;21.90;99.90;;;;;;5053177;28;20168;-74
2021/07/11 13:19:19;;;;;;;560.42;528.83;;;21.50;99.90;;;;;;5053171;28;20199;-74
2021/07/11 13:21:46;;;;;;;521.50;492.85;;;21.50;99.90;;;;;;5053086;28;20172;-74
2021/07/11 13:24:12;;;;;;;698.50;657.08;;;21.50;99.90;;;;;;5053124;28;20172;-74
2021/07/11 13:26:37;;;;;;;574.10;542.13;;;21.30;99.90;;;;;;5053235;28;20161;-74
2021/07/11 13:29:03;;;;;;;633.63;597.30;;;21.50;99.90;;;;;;5053205;28;20173;-74
2021/07/11 13:31:29;;;;;;;811.22;758.90;;;21.60;99.90;;;;;;5053217;28;20543;-74
2021/07/11 13:33:56;;;;;;;900.80;840.60;;;21.70;99.90;;;;;;5053058;28;20176;-74
2021/07/11 13:36:22;;;;;;;879.63;822.15;;;21.60;99.90;;;;;;5054302;28;20169;-74
2021/07/11 13:38:48;;;;;;;826.15;773.05;;;21.70;99.90;;;;;;5056890;28;20606;-74
2021/07/11 13:41:14;;;;;;;860.55;805.17;;;21.70;99.90;;;;;;5055680;28;20175;-74
2021/07/11 13:43:39;;;;;;;935.92;872.65;;;21.60;99.90;;;;;;5056885;28;20251;-74
2021/07/11 13:46:05;;;;;;;921.53;860.08;;;21.60;99.90;;;;;;5056882;28;20222;-74
2021/07/11 13:48:32;;;;;;;1026.90;952.80;;;21.70;99.90;;;;;;5056732;28;20168;-74
2021/07/11 13:50:58;;;;;;;908.30;848.47;;;21.60;99.90;;;;;;5056561;28;20212;-74
2021/07/11 13:53:23;;;;;;;989.97;919.80;;;21.60;99.90;;;;;;5056743;28;20198;-74
2021/07/11 13:55:49;;;;;;;985.35;916.53;;;21.60;99.90;;;;;;5056500;28;20173;-74
2021/07/11 13:58:15;;;;;;;1133.78;999.90;;;21.70;99.90;;;;;;5056679;28;20282;-74
2021/07/11 14:00:42;;;;;;;1118.13;999.90;;;21.70;99.90;;;;;;5056428;28;20196;-74
2021/07/11 14:03:08;;;;;;;1132.57;999.90;;;21.70;99.90;;;;;;5056416;28;20168;-74
2021/07/11 14:05:34;;;;;;;1109.93;999.90;;;21.80;99.90;;;;;;5056316;28;20255;-74
2021/07/11 14:07:59;;;;;;;1169.57;999.90;;;21.70;99.90;;;;;;5056501;28;20303;-74
2021/07/11 14:10:29;;;;;;;1113.38;999.90;;;21.70;99.90;;;;;;5056213;28;20531;-74
2021/07/11 14:12:56;;;;;;;1070.38;989.10;;;21.70;99.90;;;;;;5056214;28;20660;-74
2021/07/11 14:15:21;;;;;;;1044.80;967.92;;;21.80;99.90;;;;;;5056231;28;20188;-74
2021/07/11 14:17:47;;;;;;;1113.13;999.90;;;21.90;99.90;;;;;;5056164;28;20175;-74
2021/07/11 14:20:14;;;;;;;1155.18;999.90;;;21.90;99.90;;;;;;5056074;28;20227;-74
2021/07/11 14:22:39;;;;;;;1081.10;998.92;;;21.90;99.90;;;;;;5056048;28;20169;-74
2021/07/11 14:25:07;;;;;;;1086.07;999.58;;;21.90;99.90;;;;;;5055919;28;20172;-74
2021/07/11 14:27:33;;;;;;;1089.63;999.90;;;22.00;99.90;;;;;;5054793;28;20516;-74
2021/07/11 14:29:59;;;;;;;1160.40;999.90;;;22.00;99.90;;;;;;5055944;28;20181;-74
2021/07/11 14:32:24;;;;;;;1125.35;999.90;;;22.00;99.90;;;;;;5056075;28;20184;-74
2021/07/11 14:34:50;;;;;;;1030.07;956.05;;;22.00;99.90;;;;;;5054480;28;20181;-74
2021/07/11 14:37:17;;;;;;;1190.00;999.90;;;22.00;99.90;;;;;;5055600;28;20632;-74
2021/07/11 14:39:42;;;;;;;1169.20;999.90;;;22.00;99.90;;;;;;5054463;28;20552;-74
2021/07/11 14:42:09;;;;;;;1190.38;999.90;;;21.80;99.90;;;;;;5055471;28;20169;-74
2021/07/11 14:44:35;;;;;;;1181.35;999.90;;;21.80;99.90;;;;;;5054473;28;20180;-74
2021/07/11 14:47:01;;;;;;;1168.38;999.90;;;21.80;99.90;;;;;;5055571;28;20188;-74
2021/07/11 14:49:27;;;;;;;1140.97;999.90;;;21.80;99.90;;;;;;5054097;28;20266;-74
2021/07/11 14:51:52;;;;;;;1106.70;999.90;;;21.90;99.90;;;;;;5055368;28;20169;-74
2021/07/11 14:54:18;;;;;;;1176.28;999.90;;;21.90;99.90;;;;;;5055323;28;20172;-74
2021/07/11 14:56:43;;;;;;;1131.35;999.90;;;22.00;99.90;;;;;;5055422;28;20165;-74
2021/07/11 14:59:09;;;;;;;1207.20;999.90;;;22.00;99.90;;;;;;5055378;28;20330;-74
2021/07/11 15:01:35;;;;;;;1112.57;999.90;;;22.10;99.90;;;;;;5054097;28;20208;-74
2021/07/11 15:04:00;;;;;;;1136.70;999.90;;;22.10;99.90;;;;;;5055229;28;20160;-74
2021/07/11 15:06:26;;;;;;;1098.63;999.90;;;22.10;99.90;;;;;;5055177;28;20164;-74
2021/07/11 15:08:51;;;;;;;1175.22;999.90;;;22.10;99.90;;;;;;5054948;28;20665;-74
2021/07/11 15:11:17;;;;;;;1158.63;999.90;;;22.00;99.90;;;;;;5053868;28;20168;-74
2021/07/11 15:13:43;;;;;;;1201.18;999.90;;;21.90;99.90;;;;;;5055110;28;20231;-74
2021/07/11 15:16:08;;;;;;;1207.63;999.90;;;21.80;99.90;;;;;;5054908;28;20622;-74
2021/07/11 15:18:34;;;;;;;1207.10;999.90;;;21.80;99.90;;;;;;5055031;28;20206;-74
2021/07/11 15:21:00;;;;;;;1147.90;999.90;;;21.70;99.90;;;;;;5054749;28;20192;-74
2021/07/11 15:23:25;;;;;;;1143.90;999.90;;;21.70;99.90;;;;;;5054499;28;20161;-74
2021/07/11 15:25:51;;;;;;;1094.55;999.90;;;21.70;99.90;;;;;;5054579;28;20168;-74
2021/07/11 15:28:16;;;;;;;1175.25;999.90;;;21.80;99.90;;;;;;5054856;28;20192;-74
2021/07/11 15:30:42;;;;;;;1198.68;999.90;;;21.90;99.90;;;;;;5053365;28;20580;-74
2021/07/11 15:33:08;;;;;;;1148.93;999.90;;;21.80;99.90;;;;;;5054302;28;20270;-74
2021/07/11 15:35:33;;;;;;;1199.53;999.90;;;22.00;99.90;;;;;;5054532;28;20171;-74
2021/07/11 15:37:59;;;;;;;1175.07;999.90;;;22.20;99.90;;;;;;5054727;28;20168;-74
2021/07/11 15:40:25;;;;;;;1210.78;999.90;;;22.40;99.90;;;;;;5054312;28;20196;-74
2021/07/11 15:42:51;;;;;;;1033.28;957.97;;;22.60;99.90;;;;;;5054137;28;20169;-74
2021/07/11 15:45:16;;;;;;;1067.30;986.90;;;22.70;99.90;;;;;;5054324;28;20160;-74
2021/07/11 15:47:42;;;;;;;1090.38;999.90;;;22.70;99.90;;;;;;5054433;28;20256;-74
2021/07/11 15:50:10;;;;;;;965.75;899.17;;;22.70;99.90;;;;;;5053552;28;20216;-74
2021/07/11 15:52:41;;;;;;;1027.15;952.00;;;22.70;99.90;;;;;;5052428;28;20176;-74
2021/07/11 15:55:08;;;;;;;922.90;861.35;;;22.90;99.90;;;;;;5052791;28;20203;-74
2021/07/11 15:57:34;;;;;;;982.05;914.85;;;23.10;99.90;;;;;;5054174;28;20199;-74
2021/07/11 16:00:00;;;;;;;1091.22;999.90;;;23.30;99.90;;;;;;5053570;28;20232;-74
2021/07/11 16:02:25;;;;;;;1226.78;999.90;;;23.50;99.90;;;;;;5054278;28;20165;-74
2021/07/11 16:04:51;;;;;;;1145.25;999.90;;;23.70;99.90;;;;;;5053942;28;20175;-74
2021/07/11 16:07:17;;;;;;;1255.35;999.90;;;23.90;99.90;;;;;;5053981;28;20165;-74
2021/07/11 16:09:42;;;;;;;1124.32;999.90;;;23.90;99.90;;;;;;5052701;28;20172;-74
2021/07/11 16:12:08;;;;;;;1243.25;999.90;;;24.00;99.90;;;;;;5053953;28;20168;-74
2021/07/11 16:14:34;;;;;;;1106.30;999.90;;;24.10;99.90;;;;;;5053845;28;20176;-74
2021/07/11 16:16:59;;;;;;;1138.05;999.90;;;24.10;99.90;;;;;;5053651;28;20500;-74
2021/07/11 16:19:25;;;;;;;1151.53;999.90;;;24.20;99.90;;;;;;5052742;28;20250;-74
2021/07/11 16:21:50;;;;;;;1113.65;999.90;;;24.20;99.90;;;;;;5052543;28;20179;-74
2021/07/11 16:24:16;;;;;;;1999.90;999.90;;;24.50;99.90;;;;;;5053707;28;20164;-74
2021/07/11 16:26:42;;;;;;;1999.90;999.90;;;24.70;99.90;;;;;;5053984;28;20237;-74
2021/07/11 16:29:08;;;;;;;1999.90;999.90;;;24.90;99.90;;;;;;5052430;28;20171;-73
2021/07/11 16:31:34;;;;;;;1999.90;999.90;;;25.10;99.90;;;;;;5053679;28;20247;-73
2021/07/11 16:34:00;;;;;;;1999.90;999.90;;;25.20;99.90;;;;;;5053716;28;20255;-72
2021/07/11 16:36:26;;;;;;;1999.90;999.90;;;25.20;99.90;;;;;;5053595;28;20172;-73
2021/07/11 16:38:52;;;;;;;1999.90;999.90;;;25.20;99.90;;;;;;5052583;28;20700;-73
2021/07/11 16:41:18;;;;;;;1999.90;999.90;;;25.20;99.90;;;;;;5051117;28;20177;-72
2021/07/11 16:43:44;;;;;;;1999.90;999.90;;;25.00;99.90;;;;;;5053586;28;20709;-73
2021/07/11 16:46:11;;;;;;;1999.90;999.90;;;25.00;99.90;;;;;;5053492;28;20281;-73
2021/07/11 16:48:37;;;;;;;1640.45;999.90;;;25.10;99.90;;;;;;5053249;28;20195;-73
2021/07/11 16:51:04;;;;;;;1664.65;999.90;;;25.00;99.90;;;;;;5052211;28;20180;-73
2021/07/11 16:53:29;;;;;;;1440.30;999.90;;;25.00;99.90;;;;;;5053455;28;20525;-73
2021/07/11 16:55:59;;;;;;;1395.93;999.90;;;24.70;99.90;;;;;;5053378;28;20176;-72
2021/07/11 16:58:29;;;;;;;1999.90;999.90;;;24.40;99.90;;;;;;5053434;28;20209;-72
2021/07/11 17:00:55;;;;;;;1370.65;999.90;;;24.20;99.90;;;;;;5053214;28;20200;-73
2021/07/11 17:03:21;;;;;;;1318.45;999.90;;;24.00;99.90;;;;;;5053388;28;20286;-72
2021/07/11 17:05:47;;;;;;;1343.40;999.90;;;23.90;99.90;;;;;;5053297;28;20206;-73
2021/07/11 17:08:12;;;;;;;1302.05;999.90;;;23.90;99.90;;;;;;5053409;28;20198;-72
2021/07/11 17:10:38;;;;;;;1487.18;999.90;;;23.90;99.90;;;;;;5053571;28;20172;-73
2021/07/11 17:13:04;;;;;;;1507.00;999.90;;;24.10;99.90;;;;;;5057487;28;20641;-73
2021/07/11 17:15:30;;;;;;;1524.90;999.90;;;24.20;99.90;;;;;;5057299;28;20259;-73
2021/07/11 17:17:56;;;;;;;1640.68;999.90;;;24.40;99.90;;;;;;5057131;28;20219;-73
2021/07/11 17:20:24;;;;;;;1529.57;999.90;;;24.40;99.90;;;;;;5057121;28;20673;-73
2021/07/11 17:22:53;;;;;;;1595.30;999.90;;;24.40;99.90;;;;;;5055883;28;20168;-75
2021/07/11 17:25:19;;;;;;;1438.97;999.90;;;24.30;99.90;;;;;;5057065;28;20164;-75
2021/07/11 17:27:47;;;;;;;1446.75;999.90;;;24.30;99.90;;;;;;5057015;28;20729;-75
2021/07/11 17:30:16;;;;;;;1358.43;999.90;;;24.40;99.90;;;;;;5055912;28;20259;-75
2021/07/11 17:32:42;;;;;;;1471.88;999.90;;;24.60;99.90;;;;;;5056776;28;20222;-74
2021/07/11 17:35:08;;;;;;;1811.13;999.90;;;24.70;99.90;;;;;;5055552;28;20176;-75
2021/07/11 17:37:34;;;;;;;1654.57;999.90;;;24.70;99.90;;;;;;5056660;28;20200;-74
2021/07/11 17:40:00;;;;;;;1576.18;999.90;;;24.50;99.90;;;;;;5055573;28;20207;-74
2021/07/11 17:42:25;;;;;;;1520.45;999.90;;;24.30;99.90;;;;;;5056969;28;20310;-74
2021/07/11 17:44:51;;;;;;;1539.28;999.90;;;24.00;99.90;;;;;;5056644;28;20226;-74
2021/07/11 17:47:17;;;;;;;1610.57;999.90;;;23.70;99.90;;;;;;5056820;28;20171;-74
2021/07/11 17:49:42;;;;;;;1546.40;999.90;;;23.40;99.90;;;;;;5055422;28;20224;-74
2021/07/11 17:52:08;;;;;;;1560.47;999.90;;;23.20;99.90;;;;;;5055610;28;20176;-74
2021/07/11 17:54:33;;;;;;;1459.65;999.90;;;22.90;99.90;;;;;;5056578;28;20176;-76
2021/07/11 17:56:59;;;;;;;1450.03;999.90;;;22.70;99.90;;;;;;5056542;28;20508;-74
2021/07/11 17:59:25;;;;;;;1396.63;999.90;;;22.50;99.90;;;;;;5056377;28;20223;-74
2021/07/11 18:01:50;;;;;;;1349.70;999.90;;;22.40;99.90;;;;;;5056459;28;20172;-74
2021/07/11 18:04:16;;;;;;;1371.75;999.90;;;22.30;99.90;;;;;;5056666;28;20165;-74
2021/07/11 18:06:41;;;;;;;1352.82;999.90;;;22.10;99.90;;;;;;5056475;28;20168;-74
2021/07/11 18:09:07;;;;;;;1334.03;999.90;;;22.00;99.90;;;;;;5056375;28;20243;-74
2021/07/11 18:11:33;;;;;;;1326.63;999.90;;;21.80;99.90;;;;;;5055093;28;20165;-74
2021/07/11 18:13:59;;;;;;;1336.32;999.90;;;21.70;99.90;;;;;;5056285;28;20165;-74
2021/07/11 18:16:25;;;;;;;1317.22;999.90;;;21.60;99.90;;;;;;5056082;28;20175;-74
2021/07/11 18:18:50;;;;;;;1323.55;999.90;;;21.60;99.90;;;;;;5056188;28;20176;-74
2021/07/11 18:21:16;;;;;;;1320.53;999.90;;;21.50;99.90;;;;;;5055844;28;20557;-74
2021/07/11 18:23:42;;;;;;;1345.70;999.90;;;21.50;99.90;;;;;;5055689;28;20196;-74
